createdAt,value
2022-10-04T00:01:38.738Z,9.3
2022-10-04T00:06:41.770Z,9.2
2022-10-04T00:11:44.787Z,9.1
2022-10-04T00:16:47.226Z,9.1
2022-10-04T00:21:49.308Z,9
2022-10-04T00:26:51.554Z,9.1
2022-10-04T00:31:53.876Z,9.1
2022-10-04T00:36:55.897Z,9
2022-10-04T00:41:57.830Z,9
2022-10-04T00:47:00.231Z,9.1
2022-10-04T00:52:03.246Z,9
2022-10-04T00:57:05.225Z,9
2022-10-04T01:02:07.877Z,8.9
2022-10-04T01:07:09.869Z,8.9
2022-10-04T01:12:11.803Z,8.9
2022-10-04T01:17:14.288Z,8.7
2022-10-04T01:22:16.386Z,8.7
2022-10-04T01:27:18.383Z,8.7
2022-10-04T01:32:20.446Z,8.7
2022-10-04T01:37:22.584Z,8.7
2022-10-04T01:42:24.560Z,8.7
2022-10-04T01:47:27.029Z,8.7
2022-10-04T01:52:29.055Z,8.6
2022-10-04T01:57:31.052Z,8.7
2022-10-04T02:02:33.031Z,8.7
2022-10-04T02:07:35.051Z,8.7
2022-10-04T02:12:37.060Z,8.8
2022-10-04T02:17:39.153Z,8.8
2022-10-04T02:22:41.476Z,8.7
2022-10-04T02:27:43.830Z,8.7
2022-10-04T02:32:45.841Z,8.6
2022-10-04T02:37:47.843Z,8.6
2022-10-04T02:42:50.418Z,8.5
2022-10-04T02:47:52.457Z,8.5
2022-10-04T02:52:54.436Z,8.5
2022-10-04T02:57:56.286Z,8.5
2022-10-04T03:02:58.728Z,8.4
2022-10-04T03:08:00.735Z,8.4
2022-10-04T03:13:02.719Z,8.4
2022-10-04T03:18:04.871Z,8.4
2022-10-04T03:23:06.862Z,8.5
2022-10-04T03:28:09.070Z,8.5
2022-10-04T03:33:11.257Z,8.5
2022-10-04T03:38:13.336Z,8.4
2022-10-04T03:43:15.334Z,8.4
2022-10-04T03:48:17.847Z,8.3
2022-10-04T03:53:19.914Z,8.2
2022-10-04T03:58:21.854Z,8.3
2022-10-04T04:03:23.838Z,8.3
2022-10-04T04:08:25.849Z,8.2
2022-10-04T04:13:27.864Z,8.2
2022-10-04T04:18:29.827Z,8.1
2022-10-04T04:23:31.842Z,8.1
2022-10-04T04:28:34.474Z,8
2022-10-04T04:33:36.796Z,8
2022-10-04T04:38:38.887Z,7.9
2022-10-04T04:43:41.085Z,7.9
2022-10-04T04:48:44.404Z,7.9
2022-10-04T04:53:47.071Z,7.9
2022-10-04T04:58:49.987Z,8
2022-10-04T05:03:52.541Z,8
2022-10-04T05:08:54.723Z,8
2022-10-04T05:13:56.906Z,8.1
2022-10-04T05:18:59.690Z,9
2022-10-04T05:24:02.323Z,8.9
2022-10-04T05:29:04.652Z,9.7
2022-10-04T05:34:06.828Z,10.3
2022-10-04T05:39:08.785Z,10.7
2022-10-04T05:44:10.857Z,11.4
2022-10-04T05:49:20.559Z,12.6
2022-10-04T05:54:22.444Z,12.6
2022-10-04T05:59:24.527Z,12.9
2022-10-04T06:04:26.512Z,13.5
2022-10-04T06:09:28.533Z,14
2022-10-04T06:14:30.449Z,14.6
2022-10-04T06:19:32.510Z,14.8
2022-10-04T06:24:34.886Z,15.4
2022-10-04T06:29:36.854Z,15.8
2022-10-04T06:34:38.901Z,16.5
2022-10-04T06:39:40.945Z,17.4
2022-10-04T06:44:47.800Z,18.3
2022-10-04T06:49:49.950Z,18.2
2022-10-04T06:54:51.972Z,19.2
2022-10-04T06:59:53.955Z,20.5
2022-10-04T07:05:10.785Z,22.3
2022-10-04T07:10:03.162Z,22.4
2022-10-04T07:15:05.347Z,23.4
2022-10-04T07:20:07.465Z,24.7
2022-10-04T07:25:10.270Z,25.6
2022-10-04T07:30:12.240Z,25.5
2022-10-04T07:35:15.015Z,22
2022-10-04T07:40:16.940Z,20
2022-10-04T07:45:19.204Z,20.3
2022-10-04T07:50:21.718Z,19.7
2022-10-04T07:55:23.807Z,18.8
2022-10-04T08:00:25.829Z,19.9
2022-10-04T08:05:28.121Z,20.7
2022-10-04T08:10:30.116Z,18.8
2022-10-04T08:15:32.333Z,18
2022-10-04T08:20:34.485Z,18
2022-10-04T08:25:36.775Z,17.7
2022-10-04T08:30:38.768Z,17.8
2022-10-04T08:35:40.761Z,18.6
2022-10-04T08:45:43.321Z,18
2022-10-04T08:50:45.251Z,17.9
2022-10-04T08:55:47.263Z,17
2022-10-04T09:00:49.287Z,16.8
2022-10-04T09:05:51.408Z,16.6
2022-10-04T09:10:53.482Z,16.5
2022-10-04T09:15:56.049Z,16.8
2022-10-04T09:20:58.229Z,16.8
2022-10-04T09:26:01.526Z,17.2
2022-10-04T09:31:04.068Z,18.3
2022-10-04T09:36:06.161Z,18.3
2022-10-04T09:41:08.238Z,18.6
2022-10-04T09:46:10.342Z,18.5
2022-10-04T09:51:12.301Z,20.8
2022-10-04T09:56:14.290Z,22
2022-10-04T10:01:16.398Z,21.9
2022-10-04T10:11:18.763Z,24.5
2022-10-04T10:16:21.525Z,27.8
2022-10-04T10:21:23.622Z,27.6
2022-10-04T10:26:26.121Z,29.5
2022-10-04T10:31:28.608Z,31.4
2022-10-04T10:36:31.440Z,31.3
2022-10-04T10:41:33.399Z,30
2022-10-04T10:46:37.833Z,31.3
2022-10-04T10:51:41.263Z,31.7
2022-10-04T10:56:44.145Z,31.3
2022-10-04T11:01:47.408Z,32.1
2022-10-04T11:11:50.542Z,30.8
2022-10-04T11:16:52.482Z,27.9
2022-10-04T11:21:54.573Z,26.9
2022-10-04T11:26:56.792Z,24.8
2022-10-04T11:31:58.807Z,23.5
2022-10-04T11:37:00.812Z,25
2022-10-04T11:42:02.785Z,24
2022-10-04T11:47:05.225Z,24.1
2022-10-04T11:52:07.431Z,24.8
2022-10-04T11:57:09.604Z,24.3
2022-10-04T12:02:11.695Z,23.1
2022-10-04T12:07:13.630Z,21.5
2022-10-04T12:12:15.552Z,22.6
2022-10-04T12:17:18.559Z,21.1
2022-10-04T12:22:20.632Z,22
2022-10-04T12:27:22.650Z,21.8
2022-10-04T12:32:25.013Z,22.4
2022-10-04T12:37:26.934Z,22.4
2022-10-04T12:42:33.977Z,24.4
2022-10-04T12:47:35.878Z,24.4
2022-10-04T12:52:37.854Z,24.4
2022-10-04T12:57:39.827Z,24.6
2022-10-04T13:02:41.974Z,24.5
2022-10-04T13:07:44.018Z,24
2022-10-04T13:12:46.737Z,22.7
2022-10-04T13:17:49.113Z,21.5
2022-10-04T13:22:59.992Z,19.7
2022-10-04T13:27:52.104Z,19.6
2022-10-04T13:32:56.361Z,19.2
2022-10-04T13:37:58.510Z,18.6
2022-10-04T13:43:00.502Z,18.6
2022-10-04T13:48:02.489Z,18.5
2022-10-04T13:53:04.688Z,18
2022-10-04T13:58:06.590Z,17.7
2022-10-04T14:03:08.690Z,18
2022-10-04T14:08:10.885Z,18.1
2022-10-04T14:13:13.131Z,18
2022-10-04T14:18:15.226Z,17.9
2022-10-04T14:23:17.121Z,17.9
2022-10-04T14:28:19.279Z,17.7
2022-10-04T14:33:21.266Z,17.5
2022-10-04T14:38:28.498Z,17.1
2022-10-04T14:43:30.675Z,17.1
2022-10-04T14:48:32.837Z,17
2022-10-04T14:53:34.861Z,16.8
2022-10-04T14:58:37.097Z,16.9
2022-10-04T15:03:39.211Z,16.8
2022-10-04T15:08:41.442Z,16.7
2022-10-04T15:13:43.853Z,16.5
2022-10-04T15:18:45.967Z,16.4
2022-10-04T15:23:48.386Z,16.4
2022-10-04T15:28:50.671Z,16.2
2022-10-04T15:33:52.824Z,16.1
2022-10-04T15:38:54.806Z,15.8
2022-10-04T15:43:56.825Z,15.7
2022-10-04T15:48:59.117Z,15.5
2022-10-04T15:54:01.441Z,15.3
2022-10-04T15:59:03.405Z,15.2
2022-10-04T16:09:12.403Z,14.7
2022-10-04T16:14:14.529Z,14.6
2022-10-04T16:19:16.859Z,14.4
2022-10-04T16:24:18.901Z,14.2
2022-10-04T16:29:20.991Z,14
2022-10-04T16:34:23.486Z,13.8
2022-10-04T16:39:25.663Z,13.5
2022-10-04T16:49:29.466Z,13.2
2022-10-04T16:54:31.374Z,13
2022-10-04T16:59:33.432Z,12.8
2022-10-04T17:04:35.304Z,12.6
2022-10-04T17:09:37.518Z,12.5
2022-10-04T17:14:39.890Z,12.3
2022-10-04T17:19:41.858Z,12.2
2022-10-04T17:24:43.960Z,12.1
2022-10-04T17:29:46.265Z,12
2022-10-04T17:34:48.253Z,11.9
2022-10-04T17:39:50.202Z,11.8
2022-10-04T17:44:52.401Z,11.7
2022-10-04T17:49:54.526Z,11.6
2022-10-04T17:54:56.539Z,11.4
2022-10-04T17:59:59.068Z,11.2
2022-10-04T18:05:01.076Z,11.1
2022-10-04T18:10:03.095Z,11.1
2022-10-04T18:15:05.151Z,11
2022-10-04T18:20:07.174Z,10.9
2022-10-04T18:25:09.049Z,10.9
2022-10-04T18:30:11.136Z,10.8
2022-10-04T18:35:13.196Z,10.7
2022-10-04T18:40:15.089Z,10.6
2022-10-04T18:45:17.874Z,10.4
2022-10-04T18:50:20.144Z,10.4
2022-10-04T18:55:22.340Z,10.4
2022-10-04T19:00:29.060Z,10.3
2022-10-04T19:05:31.251Z,10.2
2022-10-04T19:10:35.966Z,10.2
2022-10-04T19:15:41.264Z,10.1
2022-10-04T19:20:46.645Z,10
2022-10-04T19:26:33.245Z,9.9
2022-10-04T19:30:55.436Z,9.8
2022-10-04T19:35:57.481Z,9.8
2022-10-04T19:40:59.445Z,9.7
2022-10-04T19:47:52.216Z,9.6
2022-10-04T19:51:04.348Z,9.6
2022-10-04T19:56:06.338Z,9.6
2022-10-04T20:01:08.615Z,9.6
2022-10-04T20:06:11.003Z,9.5
2022-10-04T20:11:13.108Z,9.4
2022-10-04T20:16:15.338Z,9.3
2022-10-04T20:21:17.862Z,9.2
2022-10-04T20:26:24.522Z,9.2
2022-10-04T20:31:27.172Z,9.2
2022-10-04T20:36:29.347Z,9.1
2022-10-04T20:41:31.448Z,9.1
2022-10-04T20:46:33.541Z,9.1
2022-10-04T20:51:35.892Z,9
2022-10-04T20:56:38.387Z,8.9
2022-10-04T21:01:40.712Z,8.9
2022-10-04T21:06:43.068Z,8.9
2022-10-04T21:11:45.660Z,8.9
2022-10-04T21:16:49.299Z,8.7
2022-10-04T21:21:52.559Z,8.7
2022-10-04T21:26:54.618Z,8.8
2022-10-04T21:31:56.811Z,8.7
2022-10-04T21:36:58.970Z,8.7
2022-10-04T21:42:00.933Z,8.6
2022-10-04T21:47:03.163Z,8.5
2022-10-04T21:52:05.469Z,8.5
2022-10-04T21:57:07.364Z,8.4
2022-10-04T22:02:09.873Z,8.4
2022-10-04T22:07:12.054Z,8.3
2022-10-04T22:12:13.969Z,8.4
2022-10-04T22:17:15.895Z,8.4
2022-10-04T22:22:18.146Z,8.4
2022-10-04T22:27:20.161Z,8.4
2022-10-04T22:32:22.178Z,8.3
2022-10-04T22:37:24.176Z,8.2
2022-10-04T22:42:26.114Z,8.2
2022-10-04T22:47:28.086Z,8.1
2022-10-04T22:52:30.008Z,8.1
2022-10-04T22:57:31.982Z,8
2022-10-04T23:02:34.091Z,7.9
2022-10-04T23:07:40.210Z,7.9
2022-10-04T23:12:42.296Z,7.9
2022-10-04T23:17:44.269Z,7.8
2022-10-04T23:22:46.391Z,7.8
2022-10-04T23:27:48.463Z,7.8
2022-10-04T23:32:50.450Z,7.7
2022-10-04T23:37:52.457Z,7.7
2022-10-04T23:42:54.433Z,7.7
2022-10-04T23:47:56.400Z,7.6
2022-10-04T23:52:58.667Z,7.6
2022-10-04T23:58:00.759Z,7.5
